Domov               UVHVVR             MKGP            O straneh              
ZDRAVSTVENO VARSTVO RASTLIN
  MREŽA AGROMET. POSTAJ
 ► PROGNOSTIČNA OBVESTILA
AGROMETEOROLOŠKI PODATKI -
ARSO
OBVLADOVANJE TVEGANJ ZARADI
NEUGODNIH VREMENSKIH RAZMER
  ► NARAVNE NESREČE
  ► SUŠA/MOČA
  ► NAMAKANJE
  ► ŽLED (gozdarstvo)
KARTOGRAFSKI PRIKAZI
SPLETNE POVEZAVE
PROJEKTI IN PUBLIKACIJE

AGROMETEOROLOŠKA MREŽA: VREMENSKE POSTAJE IN FENOLOŠKA OPAZOVANJA

Pregled podatkov za lokacijo Maribor - BTŠ, meteorološka postaja 35810

Pregled senzorjev na lokaciji

ID Ime Zadnja
vrednost
Datum
zadnje
spremembe
Tip
senzorja
4297 Omočenost lista (U) 0 U 20.6.2018 16:30 A730WET
1723 Padavine (mm) 0 mm 20.6.2018 16:30 Generic 0.2 mm
1722 Relativna vlaga 2 m (% RH) 42,54 % RH 20.6.2018 16:30 Generic 0 - 100 %
1721 Temperatura 2 m (°C) 28,79 °C 20.6.2018 16:30 Generic -40 - +60 °C
4296 Smer vetra (°) 52,04 ° 20.6.2018 16:30 Generic 0 - 360
4295 Hitrost vetra (km/h) 1,59 km/h 20.6.2018 16:30 Generic 100 km/h

Pregled podatkov zadnjih 24 ur

Zap.
št.
Datum in čas Maribor - BTŠ
Omočenost
lista
Padavine Relativna
vlaga
2
m
Temperatura
2
m
Smer
vetra
Hitrost
vetra
1 20.6.2018 17:00
2 20.6.2018 16:30
3 20.6.2018 16:00
4 20.6.2018 15:30 0 0 42,5 28,8 52 1,6
5 20.6.2018 15:00 0 0 41,2 29,3 128,4 1,4
6 20.6.2018 14:30 0 0 40,6 29,2 10,7 2,2
7 20.6.2018 14:00 0 0 39,8 29,1 124,7 2,4
8 20.6.2018 13:30 0 0 40,5 29,2 6,8 1,7
9 20.6.2018 13:00 0 0 40,6 28,4 357,4 2
10 20.6.2018 12:30 0 0 40,3 28,4 89,1 1,8
11 20.6.2018 12:00 0 0 41,5 27,9 90,5 2,1
12 20.6.2018 11:30 0 0 42,4 27,5 356,9 2,3
13 20.6.2018 11:00 0 0 42,9 26,7 35,3 1,9
14 20.6.2018 10:30 0 0 43,7 27 17,8 2
15 20.6.2018 10:00 0 0 45,7 26,5 130,1 1,9
16 20.6.2018 09:30 0 0 47,2 25,8 110,6 2,3
17 20.6.2018 09:00 0 0 48,8 25 85,8 1,8
18 20.6.2018 08:30 0 0 51,8 24 195,9 2,4
19 20.6.2018 08:00 0 0 57,4 22,3 276,4 2,7
20 20.6.2018 07:30 0 0 62,1 20,8 288,4 3,1
21 20.6.2018 07:00 0 0 68,1 19,2 285 3,5
22 20.6.2018 06:30 0 0 71,4 18,1 297,1 3,3
23 20.6.2018 06:00 0 0 72,2 17,3 263,1 2,6
24 20.6.2018 05:30 0 0 73,1 16,7 293 3,1
25 20.6.2018 05:00 0 0 73,5 16,6 300,5 3,2
26 20.6.2018 04:30 0 0 73,2 16,5 296,7 3,1
27 20.6.2018 04:00 0 0 74,9 16,2 271,3 2,2
28 20.6.2018 03:30 0 0 74,7 16,4 267,4 2,8
29 20.6.2018 03:00 0 0 74,2 16,6 287,7 2,4
30 20.6.2018 02:30 0 0 74,4 16,8 308,3 2,3
31 20.6.2018 02:00 0 0 76 16,7 283,7 2,2
32 20.6.2018 01:30 0 0 74,9 17,2 289,9 2,1
33 20.6.2018 01:00 0 0 74,4 17,4 307,8 2,3
34 20.6.2018 00:30 3 0 77,8 16,9 287,5 2,4
35 20.6.2018 00:00 3 0 82,3 16,2 256,3 1,3
36 19.6.2018 23:30 2 0 84,7 15,8 289,1 1,2
37 19.6.2018 23:00 1 0 80,8 16,7 304,9 1,1
38 19.6.2018 22:30 1 0 77,7 17,3 272,3 1
39 19.6.2018 22:00 2 0 79,7 17,1 226,2 0,6
40 19.6.2018 21:30 1 0 78,1 17,8 328,2 0,9
41 19.6.2018 21:00 1 0 77,9 18,1 283,7 0,7
42 19.6.2018 20:30 0 0 71 19,6 315,6 0,9
43 19.6.2018 20:00 0 0 64,5 21,2 290,4 0,3
44 19.6.2018 19:30 0 0 53,2 24,1 1,9 0,8
45 19.6.2018 19:00 0 0 48,4 25,9 337,5 0,6
46 19.6.2018 18:30 0 0 46,1 26,3 16,2 0,9
47 19.6.2018 18:00 0 0 44,3 26,9 166,5 1,2
48 19.6.2018 17:30 0 0 44,2 27,2 5 1,4
© 2011 Ministrstvo za kmetijstvo, gozdarstvo in prehrano. Vse pravice pridržane.